FW3986 Weather Reports


Display with metric or nautical units.
time (UTC)temp
F
wind
direction
speed
MPH
gust
MPH
rain 1hr
in
rain 24hr
in
rain mn
in
humidity
%
barometer
mb
20210624091649 62 360 0.0 0.0 0.00 0.02 0.02 69 1001.7
20210624090104 63 360 0.0 1.0 0.00 0.02 0.02 67 1002.0
20210624084626 63 115 0.0 2.0 0.00 0.02 0.02 65 1001.9
20210624083010 65 113 0.0 1.0 0.00 0.02 0.02 62 1001.7
20210624081505 65 115 0.0 2.0 0.00 0.02 0.02 60 1001.6
20210624080206 66 115 0.0 2.0 0.00 0.02 0.02 59 1001.4
20210624074645 67 119 1.0 3.0 0.00 0.02 0.02 57 1001.5
20210624073212 68 119 0.0 4.0 0.00 0.02 0.02 56 1001.6
20210624070100 69 138 2.0 4.0 0.00 0.02 0.02 53 1001.5
20210624064643 70 127 2.0 6.0 0.00 0.02 0.02 52 1001.6
20210624063143 71 92 3.0 6.0 0.00 0.02 0.02 50 1001.5
20210624061758 72 78 2.0 7.0 0.00 0.02 0.02 48 1001.4
20210624060038 73 80 2.0 5.0 0.00 0.02 0.02 48 1001.0
20210624054545 73 70 1.0 3.0 0.00 0.02 0.02 47 1000.8
20210624053026 73 20 1.0 6.0 0.00 0.02 0.02 46 1001.0
20210624051529 72 80 0.0 2.0 0.00 0.02 0.02 47 1000.8
20210624050020 73 80 0.0 2.0 0.00 0.02 0.02 48 1000.6
20210624044524 73 80 0.0 1.0 0.00 0.02 0.02 47 1000.6
20210624043017 73 80 0.0 1.0 0.00 0.02 0.02 48 1000.6
20210624041514 73 80 0.0 3.0 0.00 0.02 0.02 48 1000.5
20210624040021 73 82 0.0 1.0 0.00 0.02 0.02 48 1000.2
20210624034537 74 82 0.0 1.0 0.00 0.02 0.02 46 1000.1
20210624033101 74 82 0.0 1.0 0.00 0.02 0.02 46 1000.0
20210624031646 75 81 0.0 1.0 0.00 0.02 0.02 48 999.8
20210624030115 76 80 0.0 2.0 0.00 0.02 0.02 45 999.6
20210624024554 77 80 0.0 1.0 0.00 0.02 0.02 44 999.7
20210624023114 78 80 0.0 2.0 0.00 0.02 0.02 44 999.6
20210624021607 78 80 1.0 6.0 0.00 0.02 0.02 40 999.4
20210624020126 79 90 1.0 5.0 0.00 0.02 0.02 40 998.8
20210624014536 80 90 2.0 9.0 0.00 0.02 0.02 40 998.6
20210624013036 80 81 3.0 9.0 0.00 0.02 0.02 39 998.4
20210624011618 80 84 2.0 6.0 0.00 0.02 0.02 40 997.9
20210624010034 80 82 2.0 10.0 0.00 0.02 0.02 39 997.7
20210624004543 80 81 4.0 11.0 0.02 0.02 0.02 40 997.4
20210624003018 80 103 6.0 14.0 0.02 0.02 0.02 42 997.0
20210624001521 81 122 8.0 13.0 0.02 0.02 0.02 44 996.6
20210624000112 82 121 4.0 12.0 0.02 0.02 0.02 46 996.2
20210623234727 86 103 2.0 7.0 0.00 0.00 0.00 29 995.8
20210623233055 87 93 1.0 2.0 0.00 0.00 0.00 28 995.4
20210623231609 87 93 0.0 1.0 0.00 0.00 0.00 34 995.3
20210623230050 87 93 0.0 2.0 0.00 0.00 0.00 33 995.4
20210623224610 89 74 0.0 4.0 0.00 0.00 0.00 30 995.4
20210623223059 88 94 1.0 4.0 0.00 0.00 0.00 28 995.2
20210623221556 88 106 0.0 2.0 0.00 0.00 0.00 26 995.4
20210623220043 90 106 1.0 4.0 0.00 0.00 0.00 26 995.3
20210623214558 91 98 3.0 8.0 0.00 0.00 0.00 25 995.3
20210623213055 91 87 2.0 6.0 0.00 0.00 0.00 24 995.2
20210623211544 93 78 2.0 7.0 0.00 0.00 0.00 25 995.4
20210623210040 94 92 2.0 9.0 0.00 0.00 0.00 23 995.5
20210623204536 94 84 2.0 9.0 0.00 0.00 0.00 24 995.6
20210623203035 93 85 3.0 8.0 0.00 0.00 0.00 25 995.7
20210623201648 91 79 2.0 9.0 0.00 0.00 0.00 27 995.7
20210623200122 93 78 3.0 9.0 0.00 0.00 0.00 24 995.7
20210623194610 93 93 5.0 8.0 0.00 0.00 0.00 25 995.8
20210623193057 91 69 3.0 7.0 0.00 0.00 0.00 28 995.8
20210623191610 91 80 2.0 11.0 0.00 0.00 0.00 27 995.8
20210623190054 90 95 3.0 8.0 0.00 0.00 0.00 28 995.8
20210623184547 90 72 2.0 4.0 0.00 0.00 0.00 26 995.6
20210623183043 89 76 3.0 7.0 0.00 0.00 0.00 28 995.6
20210623181526 89 67 2.0 6.0 0.00 0.00 0.00 30 995.7
20210623180055 89 84 2.0 4.0 0.00 0.00 0.00 31 995.7
20210623174544 89 81 0.0 10.0 0.00 0.00 0.00 32 995.9
20210623173046 89 67 1.0 7.0 0.00 0.00 0.00 36 995.6
20210623171525 88 84 1.0 6.0 0.00 0.00 0.00 32 995.7
20210623170033 86 78 2.0 6.0 0.00 0.00 0.00 34 995.9
20210623164517 85 92 2.0 6.0 0.00 0.00 0.00 36 996.0
20210623163015 83 70 1.0 6.0 0.00 0.00 0.00 35 996.0
20210623161528 83 90 0.0 4.0 0.00 0.00 0.00 35 996.1
20210623160015 84 74 1.0 7.0 0.00 0.00 0.00 36 996.4
20210623154621 82 94 1.0 6.0 0.00 0.00 0.00 37 996.6
20210623153151 80 78 1.0 3.0 0.00 0.00 0.00 41 996.6
20210623151746 80 67 2.0 6.0 0.00 0.00 0.00 38 996.7
20210623150123 80 90 2.0 6.0 0.00 0.00 0.00 41 996.6
20210623144706 80 98 1.0 7.0 0.00 0.00 0.00 40 996.6
20210623143336 78 67 1.0 4.0 0.00 0.00 0.00 43 996.6
20210623141627 76 96 1.0 3.0 0.00 0.00 0.00 45 996.8
20210623140140 73 100 3.0 8.0 0.00 0.00 0.00 45 997.0
20210623134537 68 243 0.0 1.0 0.00 0.00 0.00 56 997.0
20210623133033 64 243 0.0 1.0 0.00 0.00 0.00 58 997.1
20210623131540 63 360 0.0 0.0 0.00 0.00 0.00 61 997.2
20210623130024 63 360 0.0 1.0 0.00 0.00 0.00 61 997.1
20210623124517 64 360 0.0 5.0 0.00 0.00 0.00 57 997.1
20210623123032 63 105 0.0 3.0 0.00 0.00 0.00 55 996.6
20210623121519 62 105 3.0 5.0 0.00 0.00 0.00 55 995.8
20210623120008 62 230 0.0 0.0 0.00 0.00 0.00 57 995.4
20210623114635 62 229 0.0 0.0 0.00 0.00 0.00 56 995.0
20210623113249 63 229 0.0 3.0 0.00 0.00 0.00 54 994.7
20210623111635 64 84 0.0 0.0 0.00 0.00 0.00 51 994.3
20210623110130 64 84 0.0 4.0 0.00 0.00 0.00 50 993.9
20210623104552 64 84 0.0 4.0 0.00 0.00 0.00 49 994.2
20210623103110 65 213 0.0 1.0 0.00 0.00 0.00 46 994.4
20210623101600 66 213 3.0 5.0 0.00 0.00 0.00 45 994.4
20210623100104 65 220 3.0 5.0 0.00 0.00 0.00 43 994.7
20210623094513 65 213 0.0 4.0 0.00 0.00 0.00 51 994.3
20210623093007 66 96 2.0 7.0 0.00 0.00 0.00 46 994.1